Time;durP1;ratioP1;P1;durP2;ratioP2;P2;SDS_P1;SDS_P2;PMS_P1;PMS_P2;Temp;Humidity;BMP_temperature;BMP_pressure;BME280_temperature;BME280_humidity;BME280_pressure;Samples;Min_cycle;Max_cycle;Signal;HPM_P1;HPM_P2
2021/09/03 00:01:43;;;;;;;7.50;4.15;;;20.10;64.10;;;;;;5053215;28;20032;-71
2021/09/03 00:04:08;;;;;;;6.72;3.75;;;20.10;64.20;;;;;;5052993;28;20029;-71
2021/09/03 00:06:34;;;;;;;6.60;3.70;;;20.10;64.20;;;;;;5053163;28;20520;-70
2021/09/03 00:09:00;;;;;;;6.88;4.15;;;20.10;64.20;;;;;;5053079;28;20087;-70
2021/09/03 00:11:25;;;;;;;8.18;3.92;;;20.00;64.20;;;;;;5053078;28;20052;-71
2021/09/03 00:13:51;;;;;;;6.82;3.88;;;20.00;64.20;;;;;;5053053;28;20090;-71
2021/09/03 00:16:18;;;;;;;6.28;3.47;;;20.00;64.20;;;;;;5052819;28;20033;-71
2021/09/03 00:18:46;;;;;;;7.18;3.90;;;20.00;64.20;;;;;;5052867;28;20392;-70
2021/09/03 00:21:11;;;;;;;7.22;4.35;;;20.00;64.20;;;;;;5052865;28;20482;-71
2021/09/03 00:23:37;;;;;;;7.13;3.90;;;20.00;64.20;;;;;;5052706;28;20116;-70
2021/09/03 00:26:02;;;;;;;7.45;4.07;;;20.00;64.20;;;;;;5052810;28;20056;-71
2021/09/03 00:28:28;;;;;;;7.22;3.83;;;20.00;64.30;;;;;;5052775;28;20040;-71
2021/09/03 00:30:53;;;;;;;6.22;3.33;;;20.00;64.30;;;;;;5053037;28;20021;-71
2021/09/03 00:33:19;;;;;;;6.32;4.15;;;20.00;64.30;;;;;;5052592;28;20036;-70
2021/09/03 00:35:45;;;;;;;6.70;3.90;;;20.00;64.30;;;;;;5052738;28;20032;-71
2021/09/03 00:38:10;;;;;;;7.07;4.03;;;20.00;64.30;;;;;;5052496;28;20102;-72
2021/09/03 00:40:36;;;;;;;6.15;3.90;;;20.00;64.30;;;;;;5052362;28;20095;-71
2021/09/03 00:43:01;;;;;;;6.88;3.67;;;20.00;64.30;;;;;;5052546;28;20409;-71
2021/09/03 00:45:27;;;;;;;6.22;3.47;;;20.00;64.30;;;;;;5052572;28;20055;-71
2021/09/03 00:47:52;;;;;;;6.90;4.25;;;20.00;64.30;;;;;;5051216;28;20025;-70
2021/09/03 00:50:18;;;;;;;6.70;3.65;;;20.00;64.30;;;;;;5052583;28;20551;-71
2021/09/03 00:52:43;;;;;;;7.60;4.28;;;20.00;64.30;;;;;;5052704;28;20033;-69
2021/09/03 00:55:09;;;;;;;6.95;3.70;;;20.00;64.30;;;;;;5052784;28;20025;-71
2021/09/03 00:57:35;;;;;;;6.72;3.55;;;20.00;64.40;;;;;;5052493;28;20388;-70
2021/09/03 01:00:00;;;;;;;6.35;3.75;;;20.00;64.40;;;;;;5052439;28;20029;-71
2021/09/03 01:02:26;;;;;;;6.93;3.63;;;20.00;64.40;;;;;;5050923;28;20028;-70
2021/09/03 01:04:53;;;;;;;6.60;3.92;;;20.00;64.40;;;;;;5052645;28;20093;-71
2021/09/03 01:07:18;;;;;;;6.70;3.85;;;20.00;64.40;;;;;;5052359;28;20025;-69
2021/09/03 01:09:44;;;;;;;6.78;3.60;;;19.90;64.40;;;;;;5052444;28;20028;-71
2021/09/03 01:12:09;;;;;;;6.63;3.95;;;19.90;64.40;;;;;;5052294;28;20021;-71
2021/09/03 01:14:35;;;;;;;7.47;3.30;;;19.90;64.40;;;;;;5051066;28;20480;-71
2021/09/03 01:17:02;;;;;;;6.90;4.00;;;19.90;64.40;;;;;;5052069;28;20104;-70
2021/09/03 01:19:27;;;;;;;6.82;3.70;;;19.90;64.40;;;;;;5052174;28;20017;-71
2021/09/03 01:21:53;;;;;;;6.70;3.90;;;19.90;64.40;;;;;;5052186;28;20083;-71
2021/09/03 01:24:19;;;;;;;9.32;4.45;;;19.90;64.40;;;;;;5052229;28;20033;-71
2021/09/03 01:26:45;;;;;;;6.78;3.90;;;19.80;64.40;;;;;;5052252;28;20029;-71
2021/09/03 01:29:12;;;;;;;5.60;3.13;;;19.90;64.50;;;;;;5052239;28;20380;-70
2021/09/03 01:31:38;;;;;;;7.47;3.92;;;19.80;64.50;;;;;;5052193;28;20063;-70
2021/09/03 01:34:04;;;;;;;7.85;3.97;;;19.80;64.50;;;;;;5052135;28;20121;-71
2021/09/03 01:36:30;;;;;;;7.35;4.20;;;19.80;64.40;;;;;;5052074;28;20104;-69
2021/09/03 01:38:57;;;;;;;6.85;3.60;;;19.80;64.50;;;;;;5052012;28;20040;-70
2021/09/03 01:41:23;;;;;;;6.55;3.65;;;19.80;64.50;;;;;;5052137;28;20056;-71
2021/09/03 01:43:48;;;;;;;8.15;4.25;;;19.80;64.50;;;;;;5051967;28;20036;-71
2021/09/03 01:46:14;;;;;;;7.78;3.90;;;19.80;64.50;;;;;;5051900;28;20075;-70
2021/09/03 01:48:39;;;;;;;6.90;3.53;;;19.80;64.50;;;;;;5051876;28;20032;-70
2021/09/03 01:51:05;;;;;;;6.72;3.63;;;19.80;64.50;;;;;;5051894;28;20029;-70
2021/09/03 01:53:31;;;;;;;8.73;4.25;;;19.80;64.50;;;;;;5054907;28;20052;-70
2021/09/03 01:55:56;;;;;;;7.82;3.72;;;19.80;64.50;;;;;;5055515;28;20036;-71
2021/09/03 01:58:22;;;;;;;7.40;4.00;;;19.80;64.50;;;;;;5055440;28;20083;-71
2021/09/03 02:00:47;;;;;;;6.70;4.00;;;19.70;64.60;;;;;;5054067;28;20067;-70
2021/09/03 02:03:14;;;;;;;7.47;3.92;;;19.70;64.60;;;;;;5054047;28;20033;-70
2021/09/03 02:05:40;;;;;;;5.90;3.63;;;19.70;64.60;;;;;;5053948;28;20044;-70
2021/09/03 02:08:06;;;;;;;8.80;3.90;;;19.70;64.60;;;;;;5055305;28;20032;-70
2021/09/03 02:10:32;;;;;;;6.90;3.90;;;19.70;64.60;;;;;;5055183;28;20397;-71
2021/09/03 02:12:57;;;;;;;5.68;3.33;;;19.70;64.70;;;;;;5055211;28;20183;-71
2021/09/03 02:15:23;;;;;;;6.97;3.83;;;19.70;64.70;;;;;;5055069;28;20052;-71
2021/09/03 02:17:49;;;;;;;6.50;3.58;;;19.70;64.70;;;;;;5055035;28;20487;-71
2021/09/03 02:20:14;;;;;;;7.03;4.05;;;19.70;64.70;;;;;;5055359;28;20020;-70
2021/09/03 02:22:40;;;;;;;7.10;3.95;;;19.70;64.70;;;;;;5054909;28;20032;-71
2021/09/03 02:25:06;;;;;;;6.43;3.53;;;19.70;64.70;;;;;;5053688;28;20166;-71
2021/09/03 02:27:32;;;;;;;7.03;3.80;;;19.70;64.70;;;;;;5054971;28;20104;-71
2021/09/03 02:29:57;;;;;;;7.45;4.25;;;19.60;64.70;;;;;;5053818;28;20033;-70
2021/09/03 02:32:23;;;;;;;6.38;3.33;;;19.60;64.70;;;;;;5054932;28;20044;-70
2021/09/03 02:34:48;;;;;;;6.50;3.70;;;19.60;64.70;;;;;;5054769;28;20098;-69
2021/09/03 02:37:15;;;;;;;7.10;3.95;;;19.60;64.70;;;;;;5054465;28;20563;-71
2021/09/03 02:39:40;;;;;;;9.50;4.10;;;19.60;64.70;;;;;;5054788;28;20052;-71
2021/09/03 02:42:06;;;;;;;7.80;3.70;;;19.60;64.70;;;;;;5054541;28;20114;-70
2021/09/03 02:44:32;;;;;;;5.57;3.67;;;19.60;64.80;;;;;;5054564;28;20068;-70
2021/09/03 02:46:57;;;;;;;7.80;3.80;;;19.60;64.80;;;;;;5054718;28;20029;-71
2021/09/03 02:49:23;;;;;;;7.22;3.80;;;19.60;64.80;;;;;;5054523;28;20024;-70
2021/09/03 02:51:48;;;;;;;6.63;3.80;;;19.60;64.80;;;;;;5054472;28;20108;-70
2021/09/03 02:54:14;;;;;;;7.53;4.22;;;19.60;64.80;;;;;;5054388;28;20048;-70
2021/09/03 02:56:39;;;;;;;7.40;4.03;;;19.60;64.90;;;;;;5054340;28;20468;-71
2021/09/03 02:59:05;;;;;;;6.80;3.78;;;19.60;64.80;;;;;;5054305;28;20037;-70
2021/09/03 03:01:30;;;;;;;7.55;3.92;;;19.50;64.80;;;;;;5054271;28;20033;-70
2021/09/03 03:03:56;;;;;;;7.85;4.03;;;19.60;64.80;;;;;;5053967;28;20468;-71
2021/09/03 03:06:21;;;;;;;8.52;3.55;;;19.50;64.90;;;;;;5054173;28;20020;-71
2021/09/03 03:08:47;;;;;;;7.40;4.05;;;19.50;64.90;;;;;;5054480;28;20064;-71
2021/09/03 03:11:12;;;;;;;8.68;3.80;;;19.50;64.90;;;;;;5054142;28;20025;-71
2021/09/03 03:13:45;;;;;;;7.65;3.95;;;19.50;64.90;;;;;;5053955;28;20027;-70
2021/09/03 03:16:11;;;;;;;6.80;3.97;;;19.50;64.90;;;;;;5054000;28;20021;-71
2021/09/03 03:18:36;;;;;;;7.18;3.92;;;19.50;64.90;;;;;;5054110;28;20033;-71
2021/09/03 03:21:02;;;;;;;8.05;4.15;;;19.50;64.90;;;;;;5053961;28;20033;-70
2021/09/03 03:23:27;;;;;;;6.55;3.67;;;19.50;65.00;;;;;;5053863;28;20466;-70
2021/09/03 03:25:54;;;;;;;6.88;4.13;;;19.50;64.90;;;;;;5052553;28;20025;-70
2021/09/03 03:28:20;;;;;;;7.22;3.80;;;19.50;64.90;;;;;;5052510;28;20025;-70
2021/09/03 03:30:45;;;;;;;6.43;3.58;;;19.50;64.90;;;;;;5052443;28;20380;-71
2021/09/03 03:33:11;;;;;;;7.75;3.88;;;19.50;64.90;;;;;;5053750;28;20095;-70
2021/09/03 03:35:36;;;;;;;8.07;3.70;;;19.50;65.00;;;;;;5053608;28;20116;-70
2021/09/03 03:38:02;;;;;;;6.20;3.67;;;19.50;65.00;;;;;;5052141;28;20239;-70
2021/09/03 03:40:28;;;;;;;6.95;4.32;;;19.50;65.00;;;;;;5053627;28;20032;-71
2021/09/03 03:42:53;;;;;;;6.00;3.55;;;19.50;65.00;;;;;;5053353;28;20104;-70
2021/09/03 03:45:19;;;;;;;6.90;3.58;;;19.50;65.00;;;;;;5035680;28;20032;-70
2021/09/03 03:47:44;;;;;;;6.10;3.60;;;19.50;65.00;;;;;;5053703;28;20029;-69
2021/09/03 03:50:11;;;;;;;6.80;3.58;;;19.50;65.00;;;;;;5053667;28;20021;-70
2021/09/03 03:52:37;;;;;;;6.65;3.72;;;19.40;65.00;;;;;;5053369;28;20091;-70
2021/09/03 03:55:03;;;;;;;6.80;3.78;;;19.40;65.00;;;;;;5053247;28;20407;-70
2021/09/03 03:57:28;;;;;;;6.78;3.95;;;19.40;65.00;;;;;;5051945;28;20055;-70
2021/09/03 03:59:54;;;;;;;6.97;3.92;;;19.40;65.00;;;;;;5053275;28;20021;-70
2021/09/03 04:02:19;;;;;;;4.97;3.08;;;19.50;65.00;;;;;;5053053;28;20366;-69
2021/09/03 04:04:45;;;;;;;6.53;3.63;;;19.40;65.00;;;;;;5053178;28;20032;-70
2021/09/03 04:07:10;;;;;;;6.72;3.63;;;19.40;65.00;;;;;;5051970;28;20051;-70
2021/09/03 04:09:36;;;;;;;8.02;3.80;;;19.40;65.00;;;;;;5053052;28;20465;-70
2021/09/03 04:12:01;;;;;;;6.97;3.80;;;19.40;65.00;;;;;;5052990;28;20468;-71
2021/09/03 04:14:27;;;;;;;6.85;4.05;;;19.40;65.10;;;;;;5052407;28;20051;-70
2021/09/03 04:16:52;;;;;;;6.82;3.97;;;19.40;65.10;;;;;;5052883;28;20025;-70
2021/09/03 04:19:18;;;;;;;7.13;3.65;;;19.40;65.10;;;;;;5053219;28;20028;-70
2021/09/03 04:21:43;;;;;;;6.90;3.95;;;19.40;65.10;;;;;;5052843;28;20096;-71
2021/09/03 04:24:09;;;;;;;7.57;4.18;;;19.30;65.10;;;;;;5052808;28;20036;-70
2021/09/03 04:26:34;;;;;;;7.28;3.88;;;19.30;65.10;;;;;;5053127;28;20075;-70
2021/09/03 04:29:00;;;;;;;6.60;4.10;;;19.40;65.10;;;;;;5052729;28;20103;-70
2021/09/03 04:31:25;;;;;;;7.15;3.83;;;19.30;65.10;;;;;;5052647;28;20469;-70
2021/09/03 04:33:51;;;;;;;6.50;3.25;;;19.30;65.10;;;;;;5052701;28;20354;-70
2021/09/03 04:36:16;;;;;;;6.93;3.72;;;19.30;65.10;;;;;;5052679;28;20025;-70
2021/09/03 04:38:42;;;;;;;7.70;3.83;;;19.30;65.20;;;;;;5052505;28;20073;-70
2021/09/03 04:41:08;;;;;;;6.75;3.70;;;19.30;65.20;;;;;;5051297;28;20032;-71
2021/09/03 04:43:33;;;;;;;7.35;4.20;;;19.30;65.20;;;;;;5052773;28;20033;-70
2021/09/03 04:45:59;;;;;;;7.25;3.72;;;19.30;65.20;;;;;;5052535;28;20524;-70
2021/09/03 04:48:24;;;;;;;7.03;3.95;;;19.30;65.20;;;;;;5052542;28;20020;-70
2021/09/03 04:50:51;;;;;;;6.60;3.70;;;19.30;65.20;;;;;;5052533;28;20033;-70
2021/09/03 04:53:17;;;;;;;6.88;3.75;;;19.30;65.20;;;;;;5052559;28;20021;-70
2021/09/03 04:55:43;;;;;;;7.75;4.28;;;19.30;65.20;;;;;;5052355;28;20469;-70
2021/09/03 04:58:08;;;;;;;6.63;3.50;;;19.30;65.20;;;;;;5052490;28;20025;-70
2021/09/03 05:00:34;;;;;;;6.28;3.55;;;19.20;65.20;;;;;;5052470;28;20028;-70
2021/09/03 05:03:00;;;;;;;6.93;3.90;;;19.20;65.30;;;;;;5052367;28;20040;-70
2021/09/03 05:05:25;;;;;;;7.82;3.90;;;19.30;65.20;;;;;;5052438;28;20037;-70
2021/09/03 05:07:51;;;;;;;6.90;3.75;;;19.30;65.20;;;;;;5052394;28;20431;-71
2021/09/03 05:10:16;;;;;;;7.32;3.83;;;19.20;65.20;;;;;;5052403;28;20469;-71
2021/09/03 05:12:42;;;;;;;8.02;3.75;;;19.30;65.20;;;;;;5052290;28;20037;-70
2021/09/03 05:15:12;;;;;;;6.10;3.47;;;19.20;65.20;;;;;;5052364;28;20092;-70
2021/09/03 05:17:39;;;;;;;8.65;4.40;;;19.20;65.20;;;;;;5050984;28;20076;-70
2021/09/03 05:20:06;;;;;;;6.57;3.63;;;19.20;65.30;;;;;;5052151;28;20025;-70
2021/09/03 05:22:33;;;;;;;6.07;3.55;;;19.20;65.30;;;;;;5050784;28;20029;-70
2021/09/03 05:24:59;;;;;;;7.95;3.95;;;19.20;65.20;;;;;;5052068;28;20309;-70
2021/09/03 05:27:25;;;;;;;6.53;3.53;;;19.20;65.30;;;;;;5053580;28;20421;-71
2021/09/03 05:29:50;;;;;;;6.93;3.67;;;19.20;65.30;;;;;;5056020;28;20028;-70
2021/09/03 05:32:16;;;;;;;7.78;4.45;;;19.20;65.20;;;;;;5055922;28;20033;-70
2021/09/03 05:34:41;;;;;;;6.85;4.15;;;19.20;65.30;;;;;;5056257;28;20021;-70
2021/09/03 05:37:07;;;;;;;7.18;4.03;;;19.20;65.30;;;;;;5055739;28;20025;-70
2021/09/03 05:39:32;;;;;;;6.75;3.78;;;19.20;65.20;;;;;;5055754;28;20056;-70
2021/09/03 05:41:58;;;;;;;6.60;4.00;;;19.20;65.30;;;;;;5056113;28;20039;-70
2021/09/03 05:44:24;;;;;;;6.88;3.65;;;19.20;65.30;;;;;;5055684;28;20044;-69
2021/09/03 05:46:49;;;;;;;6.07;3.40;;;19.20;65.20;;;;;;5055520;28;20539;-70
2021/09/03 05:49:15;;;;;;;6.45;4.00;;;19.20;65.20;;;;;;5055658;28;20492;-70
2021/09/03 05:51:40;;;;;;;7.18;4.00;;;19.20;65.20;;;;;;5055592;28;20082;-70
2021/09/03 05:54:09;;;;;;;6.85;3.72;;;19.20;65.20;;;;;;5055563;28;20014;-70
2021/09/03 05:56:35;;;;;;;6.03;3.63;;;19.20;65.20;;;;;;5055691;28;20021;-70
2021/09/03 05:59:02;;;;;;;6.55;3.80;;;19.20;65.30;;;;;;5055785;28;20021;-70
2021/09/03 06:01:28;;;;;;;5.93;3.38;;;19.20;65.20;;;;;;5055346;28;20124;-70
2021/09/03 06:03:53;;;;;;;6.63;3.63;;;19.20;65.20;;;;;;5055270;28;20112;-70
2021/09/03 06:06:19;;;;;;;7.53;4.07;;;19.20;65.30;;;;;;5055175;28;20025;-70
2021/09/03 06:08:44;;;;;;;7.05;3.75;;;19.20;65.20;;;;;;5055053;28;20092;-70
2021/09/03 06:11:10;;;;;;;6.38;3.63;;;19.20;65.20;;;;;;5053880;28;20054;-70
2021/09/03 06:13:36;;;;;;;7.97;3.88;;;19.20;65.20;;;;;;5055127;28;20033;-69
2021/09/03 06:16:01;;;;;;;6.28;3.63;;;19.20;65.20;;;;;;5054919;28;20025;-70
2021/09/03 06:18:27;;;;;;;6.32;3.65;;;19.20;65.20;;;;;;5054858;28;20112;-69
2021/09/03 06:20:52;;;;;;;8.32;4.18;;;19.20;65.20;;;;;;5054727;28;20029;-70
2021/09/03 06:23:18;;;;;;;7.28;3.95;;;19.20;65.20;;;;;;5054671;28;20429;-70
2021/09/03 06:25:43;;;;;;;7.90;3.85;;;19.20;65.20;;;;;;5054911;28;20355;-70
2021/09/03 06:28:09;;;;;;;6.75;3.83;;;19.20;65.20;;;;;;5055109;28;20021;-70
2021/09/03 06:30:34;;;;;;;7.53;3.83;;;19.20;65.20;;;;;;5054804;28;20052;-70
2021/09/03 06:33:00;;;;;;;6.70;3.80;;;19.20;65.20;;;;;;5054731;28;20049;-70
2021/09/03 06:35:25;;;;;;;6.32;3.63;;;19.20;65.20;;;;;;5054798;28;20051;-70
2021/09/03 06:37:51;;;;;;;6.53;4.03;;;19.20;65.20;;;;;;5054029;28;20056;-70
2021/09/03 06:40:16;;;;;;;7.60;3.72;;;19.20;65.10;;;;;;5054561;28;20116;-70
2021/09/03 06:42:42;;;;;;;7.85;4.00;;;19.20;65.10;;;;;;5054465;28;20053;-70
2021/09/03 06:45:09;;;;;;;7.53;3.83;;;19.20;65.10;;;;;;5054551;28;20028;-70
2021/09/03 06:47:34;;;;;;;7.55;4.28;;;19.20;65.00;;;;;;5054443;28;20100;-71
2021/09/03 06:50:01;;;;;;;6.85;3.80;;;19.20;65.00;;;;;;5053199;28;20421;-70
2021/09/03 06:52:30;;;;;;;6.88;3.88;;;19.30;65.00;;;;;;5054339;28;20021;-70
2021/09/03 06:54:57;;;;;;;6.20;3.50;;;19.20;65.00;;;;;;5054558;28;20021;-71
2021/09/03 06:57:22;;;;;;;6.93;4.00;;;19.20;65.00;;;;;;5053100;28;20104;-70
2021/09/03 06:59:48;;;;;;;8.05;3.85;;;19.30;65.00;;;;;;5053057;28;20132;-70
2021/09/03 07:02:15;;;;;;;7.10;3.70;;;19.30;65.00;;;;;;5054036;28;20032;-70
2021/09/03 07:04:41;;;;;;;6.13;3.75;;;19.30;64.90;;;;;;5054157;28;20040;-70
2021/09/03 07:07:06;;;;;;;6.93;3.75;;;19.30;64.90;;;;;;5054423;28;20104;-70
2021/09/03 07:09:32;;;;;;;6.85;3.92;;;19.30;64.80;;;;;;5053971;28;20121;-70
2021/09/03 07:11:57;;;;;;;6.85;4.20;;;19.30;64.80;;;;;;5054253;28;20025;-70
2021/09/03 07:14:23;;;;;;;6.68;3.80;;;19.30;64.80;;;;;;5052713;28;20021;-70
2021/09/03 07:16:48;;;;;;;7.68;3.60;;;19.30;64.70;;;;;;5053972;28;20020;-70
2021/09/03 07:19:14;;;;;;;7.97;4.10;;;19.40;64.70;;;;;;5053859;28;20025;-70
2021/09/03 07:21:39;;;;;;;7.30;3.67;;;19.40;64.60;;;;;;5053735;28;20105;-70
2021/09/03 07:24:05;;;;;;;7.70;3.88;;;19.40;64.60;;;;;;5053736;28;20481;-70
2021/09/03 07:26:31;;;;;;;6.30;3.85;;;19.40;64.60;;;;;;5053616;28;20465;-70
2021/09/03 07:28:57;;;;;;;7.03;3.88;;;19.40;64.60;;;;;;5053766;28;20025;-70
2021/09/03 07:31:23;;;;;;;6.70;4.03;;;19.40;64.50;;;;;;5053684;28;20515;-70
2021/09/03 07:33:49;;;;;;;6.93;3.47;;;19.40;64.50;;;;;;5053670;28;20033;-70
2021/09/03 07:36:15;;;;;;;6.32;3.85;;;19.40;64.50;;;;;;5053614;28;20025;-70
2021/09/03 07:38:40;;;;;;;7.40;3.65;;;19.50;64.40;;;;;;5053425;28;20049;-70
2021/09/03 07:41:06;;;;;;;6.68;3.63;;;19.50;64.30;;;;;;5053402;28;20354;-70
2021/09/03 07:43:33;;;;;;;6.53;3.80;;;19.50;64.30;;;;;;5053508;28;20059;-70
2021/09/03 07:45:58;;;;;;;6.75;4.00;;;19.50;64.20;;;;;;5053406;28;20029;-71
2021/09/03 07:48:24;;;;;;;6.75;3.70;;;19.50;64.10;;;;;;5053202;28;20082;-70
2021/09/03 07:50:50;;;;;;;6.55;4.03;;;19.50;64.10;;;;;;5052244;28;20036;-71
2021/09/03 07:53:16;;;;;;;7.13;4.03;;;19.50;64.00;;;;;;5052042;28;20044;-71
2021/09/03 07:55:42;;;;;;;6.70;3.95;;;19.60;64.00;;;;;;5053352;28;20025;-70
2021/09/03 07:58:07;;;;;;;6.18;3.40;;;19.50;64.00;;;;;;5053379;28;20032;-71
2021/09/03 08:00:35;;;;;;;6.45;3.38;;;19.50;64.00;;;;;;5053083;28;20024;-71
2021/09/03 08:03:01;;;;;;;7.43;3.92;;;19.50;64.00;;;;;;5053056;28;20033;-71
2021/09/03 08:05:27;;;;;;;7.78;3.70;;;19.50;64.00;;;;;;5052839;28;20038;-71
2021/09/03 08:07:52;;;;;;;5.90;3.25;;;19.50;64.00;;;;;;5052883;28;20074;-71
2021/09/03 08:10:18;;;;;;;6.35;3.88;;;19.60;64.00;;;;;;5053125;28;20025;-70
2021/09/03 08:12:44;;;;;;;7.65;3.92;;;19.60;64.00;;;;;;5051718;28;20029;-71
2021/09/03 08:15:11;;;;;;;5.50;3.20;;;19.60;63.90;;;;;;5053353;28;20043;-71
2021/09/03 08:17:37;;;;;;;6.50;3.70;;;19.60;63.90;;;;;;5053050;28;20032;-71
2021/09/03 08:20:06;;;;;;;6.55;3.72;;;19.60;63.90;;;;;;5052806;28;20106;-70
2021/09/03 08:22:31;;;;;;;5.82;3.55;;;19.50;63.90;;;;;;5052527;28;20091;-71
2021/09/03 08:24:57;;;;;;;7.03;3.75;;;19.60;63.90;;;;;;5052691;28;20029;-70
2021/09/03 08:27:23;;;;;;;7.97;4.38;;;19.60;63.90;;;;;;5052828;28;20071;-71
2021/09/03 08:29:48;;;;;;;6.25;3.53;;;19.60;63.90;;;;;;5052623;28;20025;-71
2021/09/03 08:32:14;;;;;;;6.30;3.60;;;19.60;63.90;;;;;;5052684;28;20028;-71
2021/09/03 08:34:41;;;;;;;6.05;3.47;;;19.60;63.90;;;;;;5052725;28;20487;-70
2021/09/03 08:37:06;;;;;;;7.18;3.78;;;19.60;63.80;;;;;;5052474;28;20025;-70
2021/09/03 08:39:32;;;;;;;6.30;3.30;;;19.60;63.90;;;;;;5052706;28;20045;-70
2021/09/03 08:41:58;;;;;;;7.28;3.90;;;19.60;63.80;;;;;;5052633;28;20100;-70
2021/09/03 08:44:24;;;;;;;8.43;4.13;;;19.60;63.80;;;;;;5052573;28;20075;-71
2021/09/03 08:46:49;;;;;;;6.50;3.63;;;19.60;63.80;;;;;;5052392;28;20465;-71
2021/09/03 08:49:15;;;;;;;7.18;4.32;;;19.70;63.80;;;;;;5052408;28;20040;-70
2021/09/03 08:51:41;;;;;;;6.70;3.55;;;19.70;63.80;;;;;;5051246;28;20025;-71
2021/09/03 08:54:06;;;;;;;6.35;3.67;;;19.70;63.80;;;;;;5052715;28;20036;-71
2021/09/03 08:56:32;;;;;;;6.93;3.80;;;19.70;63.80;;;;;;5052449;28;20048;-71
2021/09/03 08:58:58;;;;;;;6.50;3.50;;;19.70;63.90;;;;;;5052451;28;20025;-71
2021/09/03 09:01:24;;;;;;;6.53;3.55;;;19.70;63.80;;;;;;5053820;28;20483;-71
2021/09/03 09:03:51;;;;;;;6.50;3.72;;;19.70;63.90;;;;;;5056331;28;20431;-70
2021/09/03 09:06:20;;;;;;;6.40;3.55;;;19.70;63.80;;;;;;5056395;28;20086;-71
2021/09/03 09:08:54;;;;;;;6.32;3.50;;;19.70;63.90;;;;;;5056397;28;20025;-71
2021/09/03 09:11:19;;;;;;;7.10;3.88;;;19.70;63.80;;;;;;5054923;28;20017;-70
2021/09/03 09:13:46;;;;;;;6.38;3.75;;;19.70;63.80;;;;;;5055077;28;20029;-71
2021/09/03 09:16:16;;;;;;;7.70;3.60;;;19.70;63.80;;;;;;5056148;28;20021;-70
2021/09/03 09:18:52;;;;;;;6.68;3.75;;;19.70;63.80;;;;;;5056393;28;20108;-70
2021/09/03 09:21:28;;;;;;;6.40;3.63;;;19.70;63.80;;;;;;5055989;28;20064;-70
2021/09/03 09:24:07;;;;;;;7.53;3.65;;;19.70;63.80;;;;;;5055964;28;20131;-71
2021/09/03 09:26:48;;;;;;;7.10;3.78;;;19.70;63.80;;;;;;5055493;28;20029;-70
2021/09/03 09:29:15;;;;;;;6.75;3.75;;;19.70;63.80;;;;;;5056055;28;20100;-71
2021/09/03 09:31:40;;;;;;;7.40;4.00;;;19.80;63.80;;;;;;5056178;28;20017;-71
2021/09/03 09:34:23;;;;;;;6.50;3.85;;;19.80;63.80;;;;;;5056060;28;20028;-71
2021/09/03 09:36:55;;;;;;;6.05;3.78;;;19.80;63.70;;;;;;5055906;28;20020;-70
2021/09/03 09:39:23;;;;;;;7.50;4.03;;;19.80;63.70;;;;;;5055592;28;20098;-70
2021/09/03 09:41:59;;;;;;;6.47;3.72;;;19.90;63.70;;;;;;5055865;28;20534;-70
2021/09/03 09:44:32;;;;;;;6.85;3.72;;;19.80;63.70;;;;;;5056084;28;20033;-70
2021/09/03 09:47:14;;;;;;;5.78;3.28;;;19.90;63.60;;;;;;5055943;28;20081;-70
2021/09/03 09:49:40;;;;;;;5.90;3.50;;;19.80;63.60;;;;;;5055832;28;20036;-70
2021/09/03 09:52:06;;;;;;;5.68;3.35;;;19.90;63.60;;;;;;5055642;28;20033;-71
2021/09/03 09:54:33;;;;;;;6.43;3.70;;;19.90;63.60;;;;;;5055713;28;20032;-70
2021/09/03 09:57:00;;;;;;;6.82;3.63;;;19.90;63.60;;;;;;5055464;28;20017;-70
2021/09/03 09:59:28;;;;;;;7.45;3.17;;;19.90;63.60;;;;;;5055605;28;20029;-70
2021/09/03 10:01:56;;;;;;;7.65;4.30;;;19.90;63.60;;;;;;5055367;28;20028;-69
2021/09/03 10:04:24;;;;;;;6.32;3.38;;;19.90;63.60;;;;;;5055384;28;20048;-70
2021/09/03 10:06:52;;;;;;;6.85;3.72;;;20.00;63.60;;;;;;5055413;28;20013;-70
2021/09/03 10:09:22;;;;;;;7.60;3.70;;;20.00;63.60;;;;;;5054008;28;20464;-70
2021/09/03 10:11:53;;;;;;;7.07;3.95;;;19.90;63.50;;;;;;5055421;28;20109;-70
2021/09/03 10:14:23;;;;;;;7.38;3.38;;;20.00;63.60;;;;;;5054290;28;20419;-70
2021/09/03 10:16:50;;;;;;;6.32;3.55;;;20.00;63.60;;;;;;5054934;28;20036;-72
2021/09/03 10:19:35;;;;;;;6.30;3.53;;;20.00;63.50;;;;;;5055148;28;20021;-70
2021/09/03 10:22:04;;;;;;;7.97;4.00;;;20.00;63.50;;;;;;5055160;28;20384;-72
2021/09/03 10:24:30;;;;;;;6.80;3.50;;;20.00;63.40;;;;;;5054911;28;20373;-72
2021/09/03 10:26:57;;;;;;;6.05;3.35;;;20.00;63.50;;;;;;5055258;28;20021;-69
2021/09/03 10:29:26;;;;;;;6.53;3.60;;;20.10;63.40;;;;;;5054990;28;20033;-72
2021/09/03 10:32:03;;;;;;;7.32;3.78;;;20.10;63.40;;;;;;5054994;28;20083;-70
2021/09/03 10:34:45;;;;;;;6.88;3.78;;;20.10;63.40;;;;;;5054753;28;20100;-71
2021/09/03 10:37:19;;;;;;;7.18;3.67;;;20.10;63.30;;;;;;5053141;28;20480;-70
2021/09/03 10:39:45;;;;;;;6.40;3.80;;;20.10;63.40;;;;;;5054719;28;20033;-71
2021/09/03 10:42:11;;;;;;;5.80;3.88;;;20.20;63.30;;;;;;5054871;28;20449;-71
2021/09/03 10:45:01;;;;;;;7.35;4.10;;;20.20;63.30;;;;;;5053180;28;20104;-71
2021/09/03 10:47:30;;;;;;;7.18;3.60;;;20.20;63.30;;;;;;5054504;28;20025;-71
2021/09/03 10:49:57;;;;;;;5.57;3.65;;;20.20;63.20;;;;;;5054478;28;20093;-71
2021/09/03 10:52:23;;;;;;;7.28;3.90;;;20.20;63.20;;;;;;5054399;28;20111;-70
2021/09/03 10:54:48;;;;;;;6.82;4.10;;;20.30;63.10;;;;;;5054464;28;20068;-69
2021/09/03 10:57:17;;;;;;;6.65;3.85;;;20.30;63.10;;;;;;5054484;28;20147;-70
2021/09/03 11:00:14;;;;;;;6.80;3.78;;;20.30;63.10;;;;;;5054358;28;20078;-71
2021/09/03 11:02:40;;;;;;;6.97;3.90;;;20.30;63.10;;;;;;5054107;28;20105;-72
2021/09/03 11:05:13;;;;;;;7.43;4.03;;;20.40;63.00;;;;;;5054327;28;20025;-71
2021/09/03 11:07:42;;;;;;;6.43;3.50;;;20.40;63.00;;;;;;5054166;28;20427;-71
2021/09/03 11:10:19;;;;;;;6.72;3.63;;;20.50;63.00;;;;;;5054066;28;20435;-70
2021/09/03 11:12:52;;;;;;;5.90;3.42;;;20.50;63.00;;;;;;5054089;28;20079;-70
2021/09/03 11:15:18;;;;;;;5.82;3.33;;;20.50;63.00;;;;;;5053966;28;20031;-71
2021/09/03 11:17:45;;;;;;;5.97;3.22;;;20.50;62.90;;;;;;5052723;28;20017;-70
2021/09/03 11:20:13;;;;;;;7.35;3.65;;;20.50;62.80;;;;;;5053961;28;20472;-70
2021/09/03 11:22:39;;;;;;;6.93;3.63;;;20.60;62.70;;;;;;5053803;28;20028;-71
2021/09/03 11:25:07;;;;;;;5.82;3.53;;;20.60;62.70;;;;;;5053953;28;20033;-71
2021/09/03 11:27:35;;;;;;;6.22;3.53;;;20.70;62.70;;;;;;5053729;28;20028;-71
2021/09/03 11:30:08;;;;;;;6.57;3.88;;;20.70;62.70;;;;;;5053584;28;20440;-71
2021/09/03 11:32:37;;;;;;;5.57;3.42;;;20.80;62.60;;;;;;5053708;28;20060;-70
2021/09/03 11:35:11;;;;;;;6.63;3.10;;;20.80;62.60;;;;;;5053676;28;20029;-71
2021/09/03 11:37:42;;;;;;;7.10;3.38;;;20.90;62.50;;;;;;5053504;28;20112;-71
2021/09/03 11:40:30;;;;;;;5.22;3.10;;;20.90;62.40;;;;;;5053436;28;20477;-70
2021/09/03 11:43:04;;;;;;;5.82;3.40;;;20.90;62.30;;;;;;5053504;28;20045;-70
2021/09/03 11:45:36;;;;;;;5.03;2.80;;;21.00;62.30;;;;;;5053523;28;20035;-71
2021/09/03 11:48:03;;;;;;;5.78;3.13;;;21.00;62.20;;;;;;5053298;28;20025;-71
2021/09/03 11:50:31;;;;;;;5.93;3.30;;;21.00;62.20;;;;;;5053072;28;20029;-71
2021/09/03 11:52:59;;;;;;;6.68;3.75;;;21.10;62.40;;;;;;5051963;28;20432;-71
2021/09/03 11:55:26;;;;;;;5.68;3.33;;;21.10;62.20;;;;;;5051697;28;20024;-71
2021/09/03 11:57:51;;;;;;;6.10;2.97;;;21.10;62.00;;;;;;5053139;28;20428;-71
2021/09/03 12:00:22;;;;;;;6.63;3.42;;;21.20;61.90;;;;;;5053349;28;20033;-70
2021/09/03 12:02:49;;;;;;;5.18;2.95;;;21.30;61.80;;;;;;5053021;28;20041;-71
2021/09/03 12:05:15;;;;;;;6.35;3.75;;;21.30;61.80;;;;;;5053143;28;20377;-71
2021/09/03 12:08:00;;;;;;;6.30;3.20;;;21.40;61.60;;;;;;5053104;28;20090;-71
2021/09/03 12:10:34;;;;;;;5.95;3.15;;;21.40;61.60;;;;;;5053057;28;20016;-71
2021/09/03 12:13:08;;;;;;;5.72;3.28;;;21.50;61.40;;;;;;5053074;28;20032;-71
2021/09/03 12:15:33;;;;;;;5.57;2.80;;;21.60;61.30;;;;;;5053182;28;20056;-71
2021/09/03 12:17:59;;;;;;;4.93;2.90;;;21.60;61.10;;;;;;5052969;28;20063;-71
2021/09/03 12:20:29;;;;;;;5.50;3.10;;;21.70;61.00;;;;;;5052949;28;20097;-71
2021/09/03 12:22:56;;;;;;;5.78;3.28;;;21.70;60.90;;;;;;5052879;28;20025;-70
2021/09/03 12:25:33;;;;;;;5.30;3.20;;;21.80;60.90;;;;;;5051720;28;20039;-71
2021/09/03 12:28:10;;;;;;;5.97;3.30;;;21.90;60.80;;;;;;5052698;28;20025;-70
2021/09/03 12:30:36;;;;;;;5.20;2.78;;;22.00;60.70;;;;;;5051382;28;20029;-70
2021/09/03 12:33:25;;;;;;;6.22;3.20;;;22.00;60.60;;;;;;5053052;28;20076;-70
2021/09/03 12:35:53;;;;;;;6.18;3.15;;;22.00;60.50;;;;;;5052269;28;20049;-70
2021/09/03 12:38:33;;;;;;;5.78;3.33;;;22.10;60.30;;;;;;5051131;28;20084;-71
2021/09/03 12:41:18;;;;;;;5.55;2.75;;;22.20;60.30;;;;;;5052499;28;20062;-71
2021/09/03 12:43:52;;;;;;;5.75;3.25;;;22.20;60.20;;;;;;5051364;28;20071;-71
2021/09/03 12:46:18;;;;;;;5.30;2.83;;;22.30;60.10;;;;;;5052624;28;20079;-71
2021/09/03 12:49:10;;;;;;;5.15;2.72;;;22.30;60.00;;;;;;5052374;28;20025;-71